West Panama City Beach, Florida
Current Conditions -  °F | °C
As of 8:53 AM on Thursday 18 Dec 2014 (Local Time) from KECP Reporting Station
Clear Clear  
Wind Chill: 45°   Ceiling: Unl
Heat Index: 47°   Visibility: 10mi
Dew Point: 42°   Wind: 5mph
Humidity: 83%   Direction: 360°N
Pressure: 30.21"   Gusts: NA
Location:  30.3525°N, 85.9093°W
Report Text: KECP 181453Z 36004KT 10SM CLR 08/06 A3021 RMK AO2 SLP242 T00830056 51011 $
Loading
Personal Weather Stations






























Interactive Weather Map New forecast layout! Learn more

10-Day Weather Forecast

Advertisements
Track Severe Weather on mobile